sensor_id;sensor_type;location;lat;lon;timestamp;P1;durP1;ratioP1;P2;durP2;ratioP2
65477;SDS011;53678;39.642;22.430;2022-12-18T00:01:06;50.35;;;21.98;;
65477;SDS011;53678;39.642;22.430;2022-12-18T00:03:44;50.17;;;21.67;;
65477;SDS011;53678;39.642;22.430;2022-12-18T00:06:10;51.65;;;20.33;;
65477;SDS011;53678;39.642;22.430;2022-12-18T00:08:37;41.38;;;19.65;;
65477;SDS011;53678;39.642;22.430;2022-12-18T00:11:03;52.47;;;23.83;;
65477;SDS011;53678;39.642;22.430;2022-12-18T00:13:31;44.72;;;20.20;;
65477;SDS011;53678;39.642;22.430;2022-12-18T00:16:08;39.40;;;18.30;;
65477;SDS011;53678;39.642;22.430;2022-12-18T00:18:36;40.17;;;18.80;;
65477;SDS011;53678;39.642;22.430;2022-12-18T00:21:02;42.08;;;18.42;;
65477;SDS011;53678;39.642;22.430;2022-12-18T00:23:30;44.20;;;20.08;;
65477;SDS011;53678;39.642;22.430;2022-12-18T00:26:03;42.75;;;17.85;;
65477;SDS011;53678;39.642;22.430;2022-12-18T00:28:33;40.95;;;17.92;;
65477;SDS011;53678;39.642;22.430;2022-12-18T00:31:03;37.38;;;17.63;;
65477;SDS011;53678;39.642;22.430;2022-12-18T00:33:31;43.58;;;19.08;;
65477;SDS011;53678;39.642;22.430;2022-12-18T00:36:00;40.25;;;18.25;;
65477;SDS011;53678;39.642;22.430;2022-12-18T00:38:31;38.22;;;18.08;;
65477;SDS011;53678;39.642;22.430;2022-12-18T00:40:57;34.00;;;16.88;;
65477;SDS011;53678;39.642;22.430;2022-12-18T00:43:23;40.13;;;18.25;;
65477;SDS011;53678;39.642;22.430;2022-12-18T00:45:50;45.00;;;18.75;;
65477;SDS011;53678;39.642;22.430;2022-12-18T00:48:16;43.47;;;18.45;;
65477;SDS011;53678;39.642;22.430;2022-12-18T00:50:42;45.30;;;19.73;;
65477;SDS011;53678;39.642;22.430;2022-12-18T00:53:09;42.55;;;18.42;;
65477;SDS011;53678;39.642;22.430;2022-12-18T00:55:35;45.40;;;20.23;;
65477;SDS011;53678;39.642;22.430;2022-12-18T00:58:03;50.17;;;20.40;;
65477;SDS011;53678;39.642;22.430;2022-12-18T01:00:29;49.60;;;19.95;;
65477;SDS011;53678;39.642;22.430;2022-12-18T01:02:54;46.92;;;20.10;;
65477;SDS011;53678;39.642;22.430;2022-12-18T01:05:21;47.60;;;20.55;;
65477;SDS011;53678;39.642;22.430;2022-12-18T01:07:48;43.97;;;18.52;;
65477;SDS011;53678;39.642;22.430;2022-12-18T01:10:14;45.58;;;19.13;;
65477;SDS011;53678;39.642;22.430;2022-12-18T01:12:40;43.70;;;17.98;;
65477;SDS011;53678;39.642;22.430;2022-12-18T01:15:06;48.42;;;18.90;;
65477;SDS011;53678;39.642;22.430;2022-12-18T01:17:33;43.53;;;18.48;;
65477;SDS011;53678;39.642;22.430;2022-12-18T01:19:59;41.40;;;18.50;;
65477;SDS011;53678;39.642;22.430;2022-12-18T01:22:25;43.33;;;18.08;;
65477;SDS011;53678;39.642;22.430;2022-12-18T01:24:51;40.40;;;17.67;;
65477;SDS011;53678;39.642;22.430;2022-12-18T01:27:20;40.20;;;18.10;;
65477;SDS011;53678;39.642;22.430;2022-12-18T01:29:46;43.25;;;17.98;;
65477;SDS011;53678;39.642;22.430;2022-12-18T01:32:12;47.83;;;19.15;;
65477;SDS011;53678;39.642;22.430;2022-12-18T01:34:38;42.80;;;19.35;;
65477;SDS011;53678;39.642;22.430;2022-12-18T01:37:04;47.80;;;19.08;;
65477;SDS011;53678;39.642;22.430;2022-12-18T01:39:30;42.97;;;18.85;;
65477;SDS011;53678;39.642;22.430;2022-12-18T01:41:57;44.55;;;19.38;;
65477;SDS011;53678;39.642;22.430;2022-12-18T01:49:54;45.35;;;19.30;;
65477;SDS011;53678;39.642;22.430;2022-12-18T01:52:21;56.65;;;21.42;;
65477;SDS011;53678;39.642;22.430;2022-12-18T01:54:49;52.35;;;20.98;;
65477;SDS011;53678;39.642;22.430;2022-12-18T01:57:18;64.00;;;23.63;;
65477;SDS011;53678;39.642;22.430;2022-12-18T01:59:45;46.17;;;19.13;;
65477;SDS011;53678;39.642;22.430;2022-12-18T02:02:16;50.97;;;19.13;;
65477;SDS011;53678;39.642;22.430;2022-12-18T02:04:42;53.40;;;19.90;;
65477;SDS011;53678;39.642;22.430;2022-12-18T02:07:27;49.58;;;19.58;;
65477;SDS011;53678;39.642;22.430;2022-12-18T02:10:02;51.35;;;19.15;;
65477;SDS011;53678;39.642;22.430;2022-12-18T02:12:55;41.40;;;16.98;;
65477;SDS011;53678;39.642;22.430;2022-12-18T02:15:39;40.58;;;17.30;;
65477;SDS011;53678;39.642;22.430;2022-12-18T02:18:19;44.45;;;17.70;;
65477;SDS011;53678;39.642;22.430;2022-12-18T02:20:49;54.58;;;18.80;;
65477;SDS011;53678;39.642;22.430;2022-12-18T02:26:35;42.88;;;16.13;;
65477;SDS011;53678;39.642;22.430;2022-12-18T02:32:04;43.78;;;16.88;;
65477;SDS011;53678;39.642;22.430;2022-12-18T02:34:38;40.53;;;16.85;;
65477;SDS011;53678;39.642;22.430;2022-12-18T02:37:09;41.70;;;17.08;;
65477;SDS011;53678;39.642;22.430;2022-12-18T02:39:40;43.95;;;18.20;;
65477;SDS011;53678;39.642;22.430;2022-12-18T02:42:10;37.03;;;15.70;;
65477;SDS011;53678;39.642;22.430;2022-12-18T02:44:43;39.80;;;16.88;;
65477;SDS011;53678;39.642;22.430;2022-12-18T02:47:11;37.70;;;16.15;;
65477;SDS011;53678;39.642;22.430;2022-12-18T02:52:31;33.10;;;14.98;;
65477;SDS011;53678;39.642;22.430;2022-12-18T03:03:07;36.97;;;15.57;;
65477;SDS011;53678;39.642;22.430;2022-12-18T03:05:41;32.60;;;15.88;;
65477;SDS011;53678;39.642;22.430;2022-12-18T03:08:21;31.13;;;15.25;;
65477;SDS011;53678;39.642;22.430;2022-12-18T03:10:57;32.35;;;13.85;;
65477;SDS011;53678;39.642;22.430;2022-12-18T03:13:28;32.00;;;15.07;;
65477;SDS011;53678;39.642;22.430;2022-12-18T03:16:01;31.85;;;14.45;;
65477;SDS011;53678;39.642;22.430;2022-12-18T03:21:00;31.63;;;14.10;;
65477;SDS011;53678;39.642;22.430;2022-12-18T03:23:34;28.98;;;14.57;;
65477;SDS011;53678;39.642;22.430;2022-12-18T03:26:09;31.33;;;14.15;;
65477;SDS011;53678;39.642;22.430;2022-12-18T03:28:43;27.92;;;14.25;;
65477;SDS011;53678;39.642;22.430;2022-12-18T03:31:31;27.30;;;14.00;;
65477;SDS011;53678;39.642;22.430;2022-12-18T03:34:04;24.95;;;13.20;;
65477;SDS011;53678;39.642;22.430;2022-12-18T03:36:42;24.45;;;12.95;;
65477;SDS011;53678;39.642;22.430;2022-12-18T03:39:08;27.88;;;13.75;;
65477;SDS011;53678;39.642;22.430;2022-12-18T03:41:39;26.98;;;13.23;;
65477;SDS011;53678;39.642;22.430;2022-12-18T03:44:40;24.75;;;12.57;;
65477;SDS011;53678;39.642;22.430;2022-12-18T03:56:17;26.75;;;12.88;;
65477;SDS011;53678;39.642;22.430;2022-12-18T03:58:44;27.30;;;13.63;;
65477;SDS011;53678;39.642;22.430;2022-12-18T04:01:17;29.52;;;13.52;;
65477;SDS011;53678;39.642;22.430;2022-12-18T04:03:47;27.63;;;13.43;;
65477;SDS011;53678;39.642;22.430;2022-12-18T04:06:16;25.95;;;12.10;;
65477;SDS011;53678;39.642;22.430;2022-12-18T04:08:43;26.42;;;13.73;;
65477;SDS011;53678;39.642;22.430;2022-12-18T04:11:14;23.83;;;12.43;;
65477;SDS011;53678;39.642;22.430;2022-12-18T04:13:44;25.85;;;12.32;;
65477;SDS011;53678;39.642;22.430;2022-12-18T04:16:18;24.73;;;12.07;;
65477;SDS011;53678;39.642;22.430;2022-12-18T04:18:45;24.77;;;12.90;;
65477;SDS011;53678;39.642;22.430;2022-12-18T04:21:13;24.05;;;12.88;;
65477;SDS011;53678;39.642;22.430;2022-12-18T04:23:40;24.73;;;12.45;;
65477;SDS011;53678;39.642;22.430;2022-12-18T04:26:08;23.90;;;12.45;;
65477;SDS011;53678;39.642;22.430;2022-12-18T04:28:54;29.60;;;13.20;;
65477;SDS011;53678;39.642;22.430;2022-12-18T04:31:20;25.13;;;12.68;;
65477;SDS011;53678;39.642;22.430;2022-12-18T04:33:46;24.15;;;12.15;;
65477;SDS011;53678;39.642;22.430;2022-12-18T04:36:13;30.42;;;14.35;;
65477;SDS011;53678;39.642;22.430;2022-12-18T04:38:39;26.30;;;13.07;;
65477;SDS011;53678;39.642;22.430;2022-12-18T04:41:10;25.13;;;12.38;;
65477;SDS011;53678;39.642;22.430;2022-12-18T04:43:35;28.52;;;13.45;;
65477;SDS011;53678;39.642;22.430;2022-12-18T04:46:05;25.92;;;12.90;;
65477;SDS011;53678;39.642;22.430;2022-12-18T04:48:32;25.80;;;13.13;;
65477;SDS011;53678;39.642;22.430;2022-12-18T04:50:58;24.52;;;12.43;;
65477;SDS011;53678;39.642;22.430;2022-12-18T04:53:24;26.98;;;13.15;;
65477;SDS011;53678;39.642;22.430;2022-12-18T04:55:50;27.13;;;14.13;;
65477;SDS011;53678;39.642;22.430;2022-12-18T04:58:16;24.50;;;12.48;;
65477;SDS011;53678;39.642;22.430;2022-12-18T05:00:42;26.25;;;14.15;;
65477;SDS011;53678;39.642;22.430;2022-12-18T05:03:08;28.98;;;14.15;;
65477;SDS011;53678;39.642;22.430;2022-12-18T05:05:34;27.52;;;14.63;;
65477;SDS011;53678;39.642;22.430;2022-12-18T05:08:00;33.17;;;14.90;;
65477;SDS011;53678;39.642;22.430;2022-12-18T05:10:26;28.70;;;14.75;;
65477;SDS011;53678;39.642;22.430;2022-12-18T05:12:52;29.27;;;14.70;;
65477;SDS011;53678;39.642;22.430;2022-12-18T05:15:29;31.52;;;14.40;;
65477;SDS011;53678;39.642;22.430;2022-12-18T05:17:56;28.17;;;14.43;;
65477;SDS011;53678;39.642;22.430;2022-12-18T05:20:22;28.92;;;15.05;;
65477;SDS011;53678;39.642;22.430;2022-12-18T05:22:49;29.60;;;14.43;;
65477;SDS011;53678;39.642;22.430;2022-12-18T05:25:16;28.20;;;14.55;;
65477;SDS011;53678;39.642;22.430;2022-12-18T05:27:42;28.95;;;14.05;;
65477;SDS011;53678;39.642;22.430;2022-12-18T05:30:08;25.55;;;13.77;;
65477;SDS011;53678;39.642;22.430;2022-12-18T05:32:35;27.10;;;13.65;;
65477;SDS011;53678;39.642;22.430;2022-12-18T05:35:01;30.05;;;14.18;;
65477;SDS011;53678;39.642;22.430;2022-12-18T05:37:27;31.33;;;14.40;;
65477;SDS011;53678;39.642;22.430;2022-12-18T05:39:53;29.20;;;12.77;;
65477;SDS011;53678;39.642;22.430;2022-12-18T05:42:19;28.30;;;12.90;;
65477;SDS011;53678;39.642;22.430;2022-12-18T05:44:45;31.40;;;14.57;;
65477;SDS011;53678;39.642;22.430;2022-12-18T05:47:11;29.92;;;13.57;;
65477;SDS011;53678;39.642;22.430;2022-12-18T05:49:36;31.48;;;13.15;;
65477;SDS011;53678;39.642;22.430;2022-12-18T05:52:04;30.77;;;14.52;;
65477;SDS011;53678;39.642;22.430;2022-12-18T05:54:30;30.27;;;14.88;;
65477;SDS011;53678;39.642;22.430;2022-12-18T05:56:56;33.38;;;13.88;;
65477;SDS011;53678;39.642;22.430;2022-12-18T05:59:22;36.25;;;16.15;;
65477;SDS011;53678;39.642;22.430;2022-12-18T06:01:48;32.65;;;15.68;;
65477;SDS011;53678;39.642;22.430;2022-12-18T06:04:14;31.25;;;14.85;;
65477;SDS011;53678;39.642;22.430;2022-12-18T06:06:40;30.15;;;14.45;;
65477;SDS011;53678;39.642;22.430;2022-12-18T06:09:06;24.85;;;13.20;;
65477;SDS011;53678;39.642;22.430;2022-12-18T06:11:37;30.88;;;15.00;;
65477;SDS011;53678;39.642;22.430;2022-12-18T06:14:04;29.23;;;14.38;;
65477;SDS011;53678;39.642;22.430;2022-12-18T06:16:31;28.77;;;14.38;;
65477;SDS011;53678;39.642;22.430;2022-12-18T06:19:02;27.95;;;14.70;;
65477;SDS011;53678;39.642;22.430;2022-12-18T06:21:29;29.38;;;15.00;;
65477;SDS011;53678;39.642;22.430;2022-12-18T06:23:56;35.25;;;15.50;;
65477;SDS011;53678;39.642;22.430;2022-12-18T06:26:23;31.20;;;15.60;;
65477;SDS011;53678;39.642;22.430;2022-12-18T06:28:49;29.10;;;14.93;;
65477;SDS011;53678;39.642;22.430;2022-12-18T06:31:16;32.00;;;14.30;;
65477;SDS011;53678;39.642;22.430;2022-12-18T06:33:42;28.15;;;12.90;;
65477;SDS011;53678;39.642;22.430;2022-12-18T06:36:10;29.88;;;14.13;;
65477;SDS011;53678;39.642;22.430;2022-12-18T06:38:40;29.85;;;13.98;;
65477;SDS011;53678;39.642;22.430;2022-12-18T06:41:11;27.08;;;12.88;;
65477;SDS011;53678;39.642;22.430;2022-12-18T06:43:40;34.33;;;16.08;;
65477;SDS011;53678;39.642;22.430;2022-12-18T06:46:06;30.60;;;13.20;;
65477;SDS011;53678;39.642;22.430;2022-12-18T06:48:32;31.25;;;14.73;;
65477;SDS011;53678;39.642;22.430;2022-12-18T06:50:58;31.38;;;14.50;;
65477;SDS011;53678;39.642;22.430;2022-12-18T06:53:26;30.30;;;15.13;;
65477;SDS011;53678;39.642;22.430;2022-12-18T06:55:58;31.50;;;16.80;;
65477;SDS011;53678;39.642;22.430;2022-12-18T06:58:25;33.47;;;16.52;;
65477;SDS011;53678;39.642;22.430;2022-12-18T07:00:52;34.67;;;17.00;;
65477;SDS011;53678;39.642;22.430;2022-12-18T07:03:18;37.63;;;17.02;;
65477;SDS011;53678;39.642;22.430;2022-12-18T07:05:44;34.72;;;16.50;;
65477;SDS011;53678;39.642;22.430;2022-12-18T07:08:09;31.83;;;15.45;;
65477;SDS011;53678;39.642;22.430;2022-12-18T07:10:42;39.17;;;17.08;;
65477;SDS011;53678;39.642;22.430;2022-12-18T07:13:08;32.90;;;15.82;;
65477;SDS011;53678;39.642;22.430;2022-12-18T07:15:35;31.25;;;15.95;;
65477;SDS011;53678;39.642;22.430;2022-12-18T07:18:01;37.42;;;16.35;;
65477;SDS011;53678;39.642;22.430;2022-12-18T07:20:27;36.20;;;17.98;;
65477;SDS011;53678;39.642;22.430;2022-12-18T07:22:53;36.40;;;17.95;;
65477;SDS011;53678;39.642;22.430;2022-12-18T07:25:19;32.92;;;16.27;;
65477;SDS011;53678;39.642;22.430;2022-12-18T07:27:45;30.00;;;15.95;;
65477;SDS011;53678;39.642;22.430;2022-12-18T07:30:11;30.67;;;15.30;;
65477;SDS011;53678;39.642;22.430;2022-12-18T07:32:37;36.75;;;17.08;;
65477;SDS011;53678;39.642;22.430;2022-12-18T07:35:02;28.83;;;14.75;;
65477;SDS011;53678;39.642;22.430;2022-12-18T07:37:29;36.67;;;15.50;;
65477;SDS011;53678;39.642;22.430;2022-12-18T07:39:54;31.73;;;16.13;;
65477;SDS011;53678;39.642;22.430;2022-12-18T07:42:20;32.63;;;16.92;;
65477;SDS011;53678;39.642;22.430;2022-12-18T07:44:59;31.48;;;16.73;;
65477;SDS011;53678;39.642;22.430;2022-12-18T07:47:28;33.63;;;17.35;;
65477;SDS011;53678;39.642;22.430;2022-12-18T07:49:57;37.28;;;16.10;;
65477;SDS011;53678;39.642;22.430;2022-12-18T07:52:23;29.27;;;15.38;;
65477;SDS011;53678;39.642;22.430;2022-12-18T07:54:48;29.60;;;15.25;;
65477;SDS011;53678;39.642;22.430;2022-12-18T07:57:15;29.25;;;14.63;;
65477;SDS011;53678;39.642;22.430;2022-12-18T07:59:41;23.23;;;13.52;;
65477;SDS011;53678;39.642;22.430;2022-12-18T08:02:08;24.48;;;12.75;;
65477;SDS011;53678;39.642;22.430;2022-12-18T08:04:33;27.63;;;13.80;;
65477;SDS011;53678;39.642;22.430;2022-12-18T08:06:59;24.38;;;13.27;;
65477;SDS011;53678;39.642;22.430;2022-12-18T08:09:25;26.90;;;13.77;;
65477;SDS011;53678;39.642;22.430;2022-12-18T08:11:51;30.75;;;14.43;;
65477;SDS011;53678;39.642;22.430;2022-12-18T08:14:17;28.30;;;14.73;;
65477;SDS011;53678;39.642;22.430;2022-12-18T08:16:42;30.70;;;14.98;;
65477;SDS011;53678;39.642;22.430;2022-12-18T08:19:08;29.45;;;15.40;;
65477;SDS011;53678;39.642;22.430;2022-12-18T08:21:34;28.15;;;15.13;;
65477;SDS011;53678;39.642;22.430;2022-12-18T08:24:00;24.25;;;13.85;;
65477;SDS011;53678;39.642;22.430;2022-12-18T08:26:28;26.38;;;14.68;;
65477;SDS011;53678;39.642;22.430;2022-12-18T08:28:56;32.35;;;18.65;;
65477;SDS011;53678;39.642;22.430;2022-12-18T08:31:23;33.38;;;21.50;;
65477;SDS011;53678;39.642;22.430;2022-12-18T08:33:50;22.60;;;13.02;;
65477;SDS011;53678;39.642;22.430;2022-12-18T08:36:18;35.70;;;17.40;;
65477;SDS011;53678;39.642;22.430;2022-12-18T08:38:45;25.88;;;13.75;;
65477;SDS011;53678;39.642;22.430;2022-12-18T08:41:13;25.98;;;14.60;;
65477;SDS011;53678;39.642;22.430;2022-12-18T08:43:40;24.00;;;13.98;;
65477;SDS011;53678;39.642;22.430;2022-12-18T08:46:25;26.23;;;14.57;;
65477;SDS011;53678;39.642;22.430;2022-12-18T08:48:52;29.50;;;15.38;;
65477;SDS011;53678;39.642;22.430;2022-12-18T08:51:20;26.65;;;13.80;;
65477;SDS011;53678;39.642;22.430;2022-12-18T08:53:46;27.02;;;15.25;;
65477;SDS011;53678;39.642;22.430;2022-12-18T08:56:12;29.85;;;13.82;;
65477;SDS011;53678;39.642;22.430;2022-12-18T08:58:39;26.20;;;13.95;;
65477;SDS011;53678;39.642;22.430;2022-12-18T09:01:07;28.63;;;16.05;;
65477;SDS011;53678;39.642;22.430;2022-12-18T09:03:36;28.83;;;14.70;;
65477;SDS011;53678;39.642;22.430;2022-12-18T09:06:02;29.02;;;15.88;;
65477;SDS011;53678;39.642;22.430;2022-12-18T09:08:28;30.13;;;16.58;;
65477;SDS011;53678;39.642;22.430;2022-12-18T09:10:55;26.67;;;14.10;;
65477;SDS011;53678;39.642;22.430;2022-12-18T09:13:21;25.13;;;13.77;;
65477;SDS011;53678;39.642;22.430;2022-12-18T09:15:48;24.67;;;13.75;;
65477;SDS011;53678;39.642;22.430;2022-12-18T09:18:16;27.50;;;15.40;;
65477;SDS011;53678;39.642;22.430;2022-12-18T09:20:44;26.17;;;14.55;;
65477;SDS011;53678;39.642;22.430;2022-12-18T09:23:11;24.73;;;14.05;;
65477;SDS011;53678;39.642;22.430;2022-12-18T09:25:37;28.55;;;15.48;;
65477;SDS011;53678;39.642;22.430;2022-12-18T09:28:11;28.58;;;14.80;;
65477;SDS011;53678;39.642;22.430;2022-12-18T09:30:40;25.20;;;13.75;;
65477;SDS011;53678;39.642;22.430;2022-12-18T09:33:09;25.40;;;12.95;;
65477;SDS011;53678;39.642;22.430;2022-12-18T09:35:38;22.70;;;13.57;;
65477;SDS011;53678;39.642;22.430;2022-12-18T09:38:07;24.15;;;12.55;;
65477;SDS011;53678;39.642;22.430;2022-12-18T09:40:40;26.33;;;14.57;;
65477;SDS011;53678;39.642;22.430;2022-12-18T09:43:13;22.70;;;12.17;;
65477;SDS011;53678;39.642;22.430;2022-12-18T09:45:58;20.58;;;12.35;;
65477;SDS011;53678;39.642;22.430;2022-12-18T09:48:36;22.25;;;13.32;;
65477;SDS011;53678;39.642;22.430;2022-12-18T09:51:10;25.88;;;13.18;;
65477;SDS011;53678;39.642;22.430;2022-12-18T09:53:47;24.25;;;13.48;;
65477;SDS011;53678;39.642;22.430;2022-12-18T09:56:19;23.05;;;12.75;;
65477;SDS011;53678;39.642;22.430;2022-12-18T10:01:22;22.60;;;11.77;;
65477;SDS011;53678;39.642;22.430;2022-12-18T10:03:49;24.25;;;11.77;;
65477;SDS011;53678;39.642;22.430;2022-12-18T10:17:46;19.98;;;11.10;;
65477;SDS011;53678;39.642;22.430;2022-12-18T10:20:33;24.60;;;12.70;;
65477;SDS011;53678;39.642;22.430;2022-12-18T10:25:51;31.08;;;15.75;;
65477;SDS011;53678;39.642;22.430;2022-12-18T10:28:20;34.53;;;17.33;;
65477;SDS011;53678;39.642;22.430;2022-12-18T10:30:46;31.17;;;16.63;;
65477;SDS011;53678;39.642;22.430;2022-12-18T10:33:16;30.45;;;17.13;;
65477;SDS011;53678;39.642;22.430;2022-12-18T10:35:47;39.30;;;16.85;;
65477;SDS011;53678;39.642;22.430;2022-12-18T10:40:53;33.30;;;17.25;;
65477;SDS011;53678;39.642;22.430;2022-12-18T10:43:28;36.72;;;17.33;;
65477;SDS011;53678;39.642;22.430;2022-12-18T10:48:39;25.38;;;14.50;;
65477;SDS011;53678;39.642;22.430;2022-12-18T10:51:16;29.77;;;14.07;;
65477;SDS011;53678;39.642;22.430;2022-12-18T10:53:51;41.03;;;15.18;;
65477;SDS011;53678;39.642;22.430;2022-12-18T10:56:21;33.53;;;17.13;;
65477;SDS011;53678;39.642;22.430;2022-12-18T10:59:04;49.42;;;18.27;;
65477;SDS011;53678;39.642;22.430;2022-12-18T11:04:19;28.05;;;15.65;;
65477;SDS011;53678;39.642;22.430;2022-12-18T11:07:03;34.70;;;17.30;;
65477;SDS011;53678;39.642;22.430;2022-12-18T11:09:38;32.85;;;15.65;;
65477;SDS011;53678;39.642;22.430;2022-12-18T11:12:19;40.17;;;20.80;;
65477;SDS011;53678;39.642;22.430;2022-12-18T11:17:38;35.70;;;18.13;;
65477;SDS011;53678;39.642;22.430;2022-12-18T11:20:19;36.17;;;19.40;;
65477;SDS011;53678;39.642;22.430;2022-12-18T11:25:27;37.70;;;22.48;;
65477;SDS011;53678;39.642;22.430;2022-12-18T11:30:34;50.42;;;24.58;;
65477;SDS011;53678;39.642;22.430;2022-12-18T11:33:20;42.33;;;19.90;;
65477;SDS011;53678;39.642;22.430;2022-12-18T11:35:48;44.28;;;21.00;;
65477;SDS011;53678;39.642;22.430;2022-12-18T11:40:58;34.08;;;19.02;;
65477;SDS011;53678;39.642;22.430;2022-12-18T11:44:13;26.90;;;16.02;;
65477;SDS011;53678;39.642;22.430;2022-12-18T11:49:18;30.75;;;18.33;;
65477;SDS011;53678;39.642;22.430;2022-12-18T11:52:00;45.10;;;21.37;;
65477;SDS011;53678;39.642;22.430;2022-12-18T11:54:28;39.97;;;20.08;;
65477;SDS011;53678;39.642;22.430;2022-12-18T12:07:27;44.78;;;20.88;;
65477;SDS011;53678;39.642;22.430;2022-12-18T12:23:57;44.10;;;22.38;;
65477;SDS011;53678;39.642;22.430;2022-12-18T12:35:02;42.42;;;22.98;;
65477;SDS011;53678;39.642;22.430;2022-12-18T12:40:18;40.45;;;18.83;;
65477;SDS011;53678;39.642;22.430;2022-12-18T12:42:53;42.55;;;19.30;;
65477;SDS011;53678;39.642;22.430;2022-12-18T12:48:19;31.17;;;16.85;;
65477;SDS011;53678;39.642;22.430;2022-12-18T12:50:46;31.90;;;16.92;;
65477;SDS011;53678;39.642;22.430;2022-12-18T12:53:33;30.95;;;20.30;;
65477;SDS011;53678;39.642;22.430;2022-12-18T12:56:03;37.67;;;19.77;;
65477;SDS011;53678;39.642;22.430;2022-12-18T12:59:15;34.83;;;18.85;;
65477;SDS011;53678;39.642;22.430;2022-12-18T13:01:46;34.03;;;19.02;;
65477;SDS011;53678;39.642;22.430;2022-12-18T13:07:14;35.28;;;20.33;;
65477;SDS011;53678;39.642;22.430;2022-12-18T13:13:02;32.35;;;18.25;;
65477;SDS011;53678;39.642;22.430;2022-12-18T13:15:30;57.78;;;31.23;;
65477;SDS011;53678;39.642;22.430;2022-12-18T13:18:10;47.97;;;23.65;;
65477;SDS011;53678;39.642;22.430;2022-12-18T13:23:27;33.60;;;19.35;;
65477;SDS011;53678;39.642;22.430;2022-12-18T13:26:40;41.67;;;19.90;;
65477;SDS011;53678;39.642;22.430;2022-12-18T13:34:25;36.28;;;20.65;;
65477;SDS011;53678;39.642;22.430;2022-12-18T13:36:53;60.90;;;22.33;;
65477;SDS011;53678;39.642;22.430;2022-12-18T13:39:21;41.80;;;21.00;;
65477;SDS011;53678;39.642;22.430;2022-12-18T13:41:54;55.65;;;23.23;;
65477;SDS011;53678;39.642;22.430;2022-12-18T13:44:58;32.88;;;15.82;;
65477;SDS011;53678;39.642;22.430;2022-12-18T13:47:25;31.63;;;16.88;;
65477;SDS011;53678;39.642;22.430;2022-12-18T13:49:57;26.67;;;16.37;;
65477;SDS011;53678;39.642;22.430;2022-12-18T13:52:25;36.85;;;18.70;;
65477;SDS011;53678;39.642;22.430;2022-12-18T13:54:59;41.08;;;19.85;;
65477;SDS011;53678;39.642;22.430;2022-12-18T13:59:56;43.25;;;19.15;;
65477;SDS011;53678;39.642;22.430;2022-12-18T14:02:23;29.13;;;16.73;;
65477;SDS011;53678;39.642;22.430;2022-12-18T14:04:51;28.77;;;16.20;;
65477;SDS011;53678;39.642;22.430;2022-12-18T14:07:21;31.15;;;17.73;;
65477;SDS011;53678;39.642;22.430;2022-12-18T14:09:51;34.03;;;17.02;;
65477;SDS011;53678;39.642;22.430;2022-12-18T14:21:29;28.10;;;15.50;;
65477;SDS011;53678;39.642;22.430;2022-12-18T14:24:14;27.73;;;15.68;;
65477;SDS011;53678;39.642;22.430;2022-12-18T14:26:42;33.92;;;16.08;;
65477;SDS011;53678;39.642;22.430;2022-12-18T14:34:50;27.42;;;15.90;;
65477;SDS011;53678;39.642;22.430;2022-12-18T14:37:21;28.40;;;15.57;;
65477;SDS011;53678;39.642;22.430;2022-12-18T14:39:56;29.08;;;15.80;;
65477;SDS011;53678;39.642;22.430;2022-12-18T14:42:27;28.20;;;15.43;;
65477;SDS011;53678;39.642;22.430;2022-12-18T14:47:59;32.47;;;15.57;;
65477;SDS011;53678;39.642;22.430;2022-12-18T14:50:26;30.13;;;15.70;;
65477;SDS011;53678;39.642;22.430;2022-12-18T14:52:51;27.55;;;16.13;;
65477;SDS011;53678;39.642;22.430;2022-12-18T14:55:21;27.65;;;16.33;;
65477;SDS011;53678;39.642;22.430;2022-12-18T14:57:50;29.15;;;16.92;;
65477;SDS011;53678;39.642;22.430;2022-12-18T15:00:20;25.52;;;16.63;;
65477;SDS011;53678;39.642;22.430;2022-12-18T15:02:48;33.47;;;24.10;;
65477;SDS011;53678;39.642;22.430;2022-12-18T15:07:49;30.75;;;17.75;;
65477;SDS011;53678;39.642;22.430;2022-12-18T15:20:52;27.02;;;16.05;;
65477;SDS011;53678;39.642;22.430;2022-12-18T15:23:45;30.90;;;16.42;;
65477;SDS011;53678;39.642;22.430;2022-12-18T15:26:13;31.08;;;16.20;;
65477;SDS011;53678;39.642;22.430;2022-12-18T15:28:55;31.17;;;15.82;;
65477;SDS011;53678;39.642;22.430;2022-12-18T15:31:34;26.20;;;16.77;;
65477;SDS011;53678;39.642;22.430;2022-12-18T15:34:05;24.25;;;15.93;;
65477;SDS011;53678;39.642;22.430;2022-12-18T15:36:39;32.03;;;15.85;;
65477;SDS011;53678;39.642;22.430;2022-12-18T15:39:05;27.15;;;16.05;;
65477;SDS011;53678;39.642;22.430;2022-12-18T15:41:35;28.38;;;15.25;;
65477;SDS011;53678;39.642;22.430;2022-12-18T15:44:02;21.90;;;13.80;;
65477;SDS011;53678;39.642;22.430;2022-12-18T15:46:42;25.35;;;14.63;;
65477;SDS011;53678;39.642;22.430;2022-12-18T15:49:08;25.98;;;15.50;;
65477;SDS011;53678;39.642;22.430;2022-12-18T15:51:35;23.92;;;14.10;;
65477;SDS011;53678;39.642;22.430;2022-12-18T15:54:02;21.75;;;14.18;;
65477;SDS011;53678;39.642;22.430;2022-12-18T15:56:31;29.23;;;16.35;;
65477;SDS011;53678;39.642;22.430;2022-12-18T15:59:19;23.48;;;11.77;;
65477;SDS011;53678;39.642;22.430;2022-12-18T16:01:47;22.58;;;14.70;;
65477;SDS011;53678;39.642;22.430;2022-12-18T16:04:17;29.65;;;16.90;;
65477;SDS011;53678;39.642;22.430;2022-12-18T16:06:45;25.63;;;15.30;;
65477;SDS011;53678;39.642;22.430;2022-12-18T16:09:12;28.27;;;16.15;;
65477;SDS011;53678;39.642;22.430;2022-12-18T16:11:39;34.08;;;17.80;;
65477;SDS011;53678;39.642;22.430;2022-12-18T16:16:42;26.02;;;15.65;;
65477;SDS011;53678;39.642;22.430;2022-12-18T16:19:08;29.25;;;16.90;;
65477;SDS011;53678;39.642;22.430;2022-12-18T16:21:34;27.60;;;15.30;;
65477;SDS011;53678;39.642;22.430;2022-12-18T16:24:00;28.33;;;14.15;;
65477;SDS011;53678;39.642;22.430;2022-12-18T16:26:26;25.38;;;15.05;;
65477;SDS011;53678;39.642;22.430;2022-12-18T16:28:52;25.77;;;14.65;;
65477;SDS011;53678;39.642;22.430;2022-12-18T16:31:18;29.75;;;16.38;;
65477;SDS011;53678;39.642;22.430;2022-12-18T16:33:44;30.25;;;16.58;;
65477;SDS011;53678;39.642;22.430;2022-12-18T16:36:10;33.75;;;17.95;;
65477;SDS011;53678;39.642;22.430;2022-12-18T16:38:36;28.23;;;17.38;;
65477;SDS011;53678;39.642;22.430;2022-12-18T16:41:04;25.90;;;14.52;;
65477;SDS011;53678;39.642;22.430;2022-12-18T16:43:57;28.63;;;16.35;;
65477;SDS011;53678;39.642;22.430;2022-12-18T16:46:23;41.25;;;20.58;;
65477;SDS011;53678;39.642;22.430;2022-12-18T16:48:49;38.58;;;19.92;;
65477;SDS011;53678;39.642;22.430;2022-12-18T16:51:15;32.42;;;18.33;;
65477;SDS011;53678;39.642;22.430;2022-12-18T16:53:41;23.15;;;14.13;;
65477;SDS011;53678;39.642;22.430;2022-12-18T16:56:07;24.83;;;13.48;;
65477;SDS011;53678;39.642;22.430;2022-12-18T16:58:33;26.48;;;15.38;;
65477;SDS011;53678;39.642;22.430;2022-12-18T17:01:06;25.98;;;15.80;;
65477;SDS011;53678;39.642;22.430;2022-12-18T17:03:33;23.80;;;12.25;;
65477;SDS011;53678;39.642;22.430;2022-12-18T17:06:05;22.83;;;14.43;;